Loudon, New Hampshire
Current Conditions -  °F | °C
As of 1:34 AM on Thursday 27 Nov 2014 (Local Time) from KCON Reporting Station
Light Snow Light Snow  
Wind Chill: -5°   Ceiling: NA
Heat Index:   Visibility: 1.5mi
Dew Point: -1°   Wind: 12mph
Humidity: 96%   Direction: 330°NNW
Pressure: 29.75"   Gusts: NA
Location:  43.18°N, 71.56°W
Report Text: KCON 270634Z AUTO 33010KT 1 1/2SM -SN BR 00/M01 A2975 RMK AO2 SNB24 T00001006 PNO $
Loading
Personal Weather Stations






























Interactive Weather Map New forecast layout! Learn more

10-Day Weather Forecast

Advertisements
Track Severe Weather on mobile